createdAt,value
2023-01-15T00:00:44.572Z,3.03
2023-01-15T00:03:11.561Z,1.80
2023-01-15T00:05:38.524Z,0.90
2023-01-15T00:08:05.002Z,1.38
2023-01-15T00:10:31.488Z,1.38
2023-01-15T00:12:57.975Z,1.55
2023-01-15T00:15:24.425Z,1.77
2023-01-15T00:17:51.015Z,2.80
2023-01-15T00:20:17.457Z,1.55
2023-01-15T00:22:43.962Z,2.95
2023-01-15T00:25:10.673Z,2.38
2023-01-15T00:27:37.685Z,1.13
2023-01-15T00:30:04.201Z,1.40
2023-01-15T00:32:31.186Z,1.05
2023-01-15T00:34:57.665Z,1.07
2023-01-15T00:37:24.102Z,1.27
2023-01-15T00:39:50.597Z,2.85
2023-01-15T00:42:17.091Z,1.02
2023-01-15T00:44:44.032Z,2.28
2023-01-15T00:47:10.484Z,1.65
2023-01-15T00:49:36.974Z,2.22
2023-01-15T00:52:03.960Z,1.08
2023-01-15T00:54:30.706Z,1.10
2023-01-15T00:56:57.212Z,1.38
2023-01-15T00:59:23.670Z,1.48
2023-01-15T01:01:50.201Z,1.30
2023-01-15T01:04:16.820Z,0.88
2023-01-15T01:06:43.318Z,0.93
2023-01-15T01:09:09.844Z,0.80
2023-01-15T01:11:36.327Z,1.15
2023-01-15T01:14:02.983Z,1.05
2023-01-15T01:16:29.516Z,0.90
2023-01-15T01:18:55.960Z,2.10
2023-01-15T01:21:22.966Z,1.02
2023-01-15T01:23:49.935Z,1.93
2023-01-15T01:26:16.411Z,1.95
2023-01-15T01:28:43.399Z,0.60
2023-01-15T01:31:09.946Z,0.70
2023-01-15T01:33:36.405Z,0.90
2023-01-15T01:36:02.849Z,0.70
2023-01-15T01:38:29.279Z,1.10
2023-01-15T01:40:56.266Z,0.93
2023-01-15T01:43:22.751Z,0.60
2023-01-15T01:45:49.295Z,3.60
2023-01-15T01:48:16.260Z,0.73
2023-01-15T01:50:42.703Z,0.73
2023-01-15T01:53:09.193Z,1.10
2023-01-15T01:55:35.704Z,1.58
2023-01-15T01:58:02.653Z,1.63
2023-01-15T02:00:29.135Z,1.17
2023-01-15T02:02:55.575Z,2.42
2023-01-15T02:05:22.592Z,0.65
2023-01-15T02:07:49.063Z,1.30
2023-01-15T02:10:15.500Z,1.10
2023-01-15T02:12:41.957Z,1.15
2023-01-15T02:15:08.431Z,0.40
2023-01-15T02:17:35.391Z,1.27
2023-01-15T02:20:01.883Z,0.82
2023-01-15T02:22:28.382Z,0.98
2023-01-15T02:24:54.837Z,0.60
2023-01-15T02:27:21.822Z,1.13
2023-01-15T02:29:48.331Z,1.17
2023-01-15T02:32:14.812Z,0.63
2023-01-15T02:34:41.326Z,1.83
2023-01-15T02:37:07.832Z,1.52
2023-01-15T02:39:34.278Z,0.95
2023-01-15T02:42:00.778Z,0.75
2023-01-15T02:44:27.270Z,1.33
2023-01-15T02:46:53.778Z,0.85
2023-01-15T02:49:20.782Z,0.60
2023-01-15T02:51:47.344Z,2.40
2023-01-15T02:54:13.829Z,0.65
2023-01-15T02:56:40.328Z,0.98
2023-01-15T02:59:06.831Z,0.60
2023-01-15T03:01:33.370Z,1.02
2023-01-15T03:03:59.856Z,0.50
2023-01-15T03:06:26.344Z,0.73
2023-01-15T03:08:53.300Z,1.88
2023-01-15T03:11:19.732Z,0.70
2023-01-15T03:13:46.240Z,1.60
2023-01-15T03:16:12.691Z,2.10
2023-01-15T03:18:39.171Z,1.02
2023-01-15T03:21:05.653Z,1.42
2023-01-15T03:23:32.150Z,1.35
2023-01-15T03:25:58.643Z,0.82
2023-01-15T03:28:25.085Z,0.40
2023-01-15T03:30:51.627Z,1.05
2023-01-15T03:33:18.077Z,1.10
2023-01-15T03:35:45.073Z,1.48
2023-01-15T03:38:11.564Z,0.65
2023-01-15T03:40:38.514Z,1.13
2023-01-15T03:43:04.969Z,0.70
2023-01-15T03:45:31.411Z,0.60
2023-01-15T03:47:57.926Z,1.02
2023-01-15T03:50:24.396Z,1.33
2023-01-15T03:52:50.921Z,0.80
2023-01-15T03:55:17.375Z,0.70
2023-01-15T03:57:43.824Z,0.70
2023-01-15T04:00:10.271Z,1.02
2023-01-15T04:02:36.721Z,0.57
2023-01-15T04:05:03.209Z,1.15
2023-01-15T04:07:29.696Z,0.77
2023-01-15T04:09:56.149Z,1.05
2023-01-15T04:12:22.574Z,0.98
2023-01-15T04:14:49.022Z,0.43
2023-01-15T04:17:15.951Z,0.68
2023-01-15T04:19:42.448Z,0.40
2023-01-15T04:22:08.889Z,0.60
2023-01-15T04:24:35.376Z,0.90
2023-01-15T04:27:02.304Z,0.45
2023-01-15T04:29:28.808Z,0.40
2023-01-15T04:31:55.339Z,0.28
2023-01-15T04:34:21.828Z,0.63
2023-01-15T04:36:48.777Z,0.32
2023-01-15T04:39:15.216Z,0.80
2023-01-15T04:41:41.694Z,0.68
2023-01-15T04:44:08.131Z,1.10
2023-01-15T04:46:34.622Z,1.33
2023-01-15T04:49:01.178Z,0.93
2023-01-15T04:51:27.660Z,0.98
2023-01-15T04:53:54.143Z,0.40
2023-01-15T04:56:20.626Z,0.30
2023-01-15T04:58:47.110Z,0.98
2023-01-15T05:01:14.154Z,1.02
2023-01-15T05:03:40.690Z,0.60
2023-01-15T05:06:07.169Z,0.43
2023-01-15T05:08:33.706Z,0.68
2023-01-15T05:11:00.647Z,0.95
2023-01-15T05:13:27.084Z,0.40
2023-01-15T05:15:53.613Z,0.40
2023-01-15T05:18:20.631Z,0.80
2023-01-15T05:20:47.139Z,0.40
2023-01-15T05:23:13.618Z,0.80
2023-01-15T05:25:40.083Z,1.45
2023-01-15T05:28:06.556Z,0.52
2023-01-15T05:30:33.112Z,0.40
2023-01-15T05:32:59.547Z,0.35
2023-01-15T05:35:26.034Z,0.30
2023-01-15T05:37:52.978Z,0.28
2023-01-15T05:40:19.458Z,0.60
2023-01-15T05:42:45.901Z,2.20
2023-01-15T05:45:12.379Z,0.20
2023-01-15T05:47:39.376Z,1.35
2023-01-15T05:50:05.833Z,0.33
2023-01-15T05:52:32.326Z,0.70
2023-01-15T05:54:58.832Z,0.47
2023-01-15T05:57:25.807Z,0.30
2023-01-15T05:59:52.272Z,0.40
2023-01-15T06:02:18.852Z,0.17
2023-01-15T06:04:45.348Z,0.77
2023-01-15T06:07:11.843Z,0.60
2023-01-15T06:09:38.372Z,1.67
2023-01-15T06:12:04.813Z,0.30
2023-01-15T06:14:31.303Z,0.43
2023-01-15T06:16:57.820Z,2.17
2023-01-15T06:19:24.279Z,0.73
2023-01-15T06:21:50.780Z,2.45
2023-01-15T06:24:17.246Z,1.02
2023-01-15T06:26:43.687Z,0.43
2023-01-15T06:29:10.153Z,0.57
2023-01-15T06:31:36.766Z,0.50
2023-01-15T06:34:03.259Z,0.32
2023-01-15T06:36:29.718Z,0.98
2023-01-15T06:38:56.172Z,0.70
2023-01-15T06:41:22.622Z,1.75
2023-01-15T06:43:49.593Z,1.48
2023-01-15T06:46:16.110Z,1.15
2023-01-15T06:48:42.585Z,0.65
2023-01-15T06:51:09.044Z,0.20
2023-01-15T06:53:36.025Z,0.70
2023-01-15T06:56:02.565Z,1.13
2023-01-15T06:58:30.201Z,3.63
2023-01-15T07:00:56.718Z,2.05
2023-01-15T07:03:23.236Z,2.17
2023-01-15T07:05:49.721Z,0.90
2023-01-15T07:08:16.666Z,1.08
2023-01-15T07:10:43.149Z,1.55
2023-01-15T07:13:09.631Z,0.93
2023-01-15T07:15:36.127Z,2.35
2023-01-15T07:18:02.626Z,3.28
2023-01-15T07:20:29.139Z,1.85
2023-01-15T07:22:55.630Z,5.03
2023-01-15T07:25:22.086Z,2.47
2023-01-15T07:27:48.584Z,3.55
2023-01-15T07:30:15.612Z,2.88
2023-01-15T07:32:42.115Z,4.03
2023-01-15T07:35:08.570Z,2.40
2023-01-15T07:37:35.005Z,2.67
2023-01-15T07:40:01.944Z,5.70
2023-01-15T07:42:28.889Z,2.95
2023-01-15T07:44:55.838Z,2.00
2023-01-15T07:47:22.292Z,7.78
2023-01-15T07:49:48.762Z,1.30
2023-01-15T07:52:15.280Z,1.48
2023-01-15T07:54:41.722Z,3.17
2023-01-15T07:57:08.640Z,6.05
2023-01-15T07:59:35.094Z,1.30
2023-01-15T08:02:01.751Z,3.90
2023-01-15T08:04:28.319Z,1.17
2023-01-15T08:06:54.769Z,5.07
2023-01-15T08:09:21.272Z,3.92
2023-01-15T08:11:47.797Z,4.90
2023-01-15T08:14:14.289Z,6.45
2023-01-15T08:16:40.804Z,7.40
2023-01-15T08:19:07.275Z,3.92
2023-01-15T08:21:33.779Z,2.47
2023-01-15T08:24:00.227Z,5.43
2023-01-15T08:26:26.713Z,6.20
2023-01-15T08:28:53.734Z,7.38
2023-01-15T08:31:20.199Z,8.60
2023-01-15T08:33:46.640Z,5.75
2023-01-15T08:36:13.128Z,11.93
2023-01-15T08:38:39.587Z,6.07
2023-01-15T08:41:06.043Z,7.50
2023-01-15T08:43:32.557Z,5.53
2023-01-15T08:45:59.149Z,5.13
2023-01-15T08:48:25.682Z,3.78
2023-01-15T08:50:52.640Z,8.75
2023-01-15T08:53:19.119Z,4.87
2023-01-15T08:55:45.554Z,6.20
2023-01-15T08:58:11.987Z,6.35
2023-01-15T09:00:38.463Z,5.70
2023-01-15T09:03:04.970Z,8.00
2023-01-15T09:05:31.965Z,10.75
2023-01-15T09:07:58.451Z,5.97
2023-01-15T09:10:24.936Z,5.22
2023-01-15T09:12:51.475Z,8.10
2023-01-15T09:15:17.977Z,3.65
2023-01-15T09:17:44.480Z,3.45
2023-01-15T09:20:11.441Z,3.13
2023-01-15T09:22:37.915Z,7.50
2023-01-15T09:25:04.421Z,5.63
2023-01-15T09:27:30.931Z,4.25
2023-01-15T09:29:57.404Z,6.32
2023-01-15T09:32:23.929Z,3.35
2023-01-15T09:34:50.408Z,2.28
2023-01-15T09:37:16.846Z,5.35
2023-01-15T09:39:43.318Z,2.90
2023-01-15T09:42:09.864Z,2.83
2023-01-15T09:44:36.383Z,4.93
2023-01-15T09:47:02.867Z,4.70
2023-01-15T09:49:29.371Z,4.57
2023-01-15T09:51:55.809Z,4.55
2023-01-15T09:54:22.322Z,2.30
2023-01-15T09:56:48.807Z,7.28
2023-01-15T09:59:15.367Z,5.57
2023-01-15T10:01:41.836Z,4.47
2023-01-15T10:04:08.412Z,1.67
2023-01-15T10:06:35.374Z,4.47
2023-01-15T10:09:01.827Z,9.70
2023-01-15T10:11:28.305Z,2.03
2023-01-15T10:13:55.313Z,1.30
2023-01-15T10:16:21.762Z,2.03
2023-01-15T10:18:48.196Z,1.90
2023-01-15T10:21:14.723Z,5.38
2023-01-15T10:23:41.184Z,2.88
2023-01-15T10:26:08.160Z,6.15
2023-01-15T10:28:34.604Z,2.07
2023-01-15T10:31:01.111Z,7.82
2023-01-15T10:33:28.986Z,5.00
2023-01-15T10:35:56.998Z,7.03
2023-01-15T10:38:23.503Z,5.93
2023-01-15T10:40:49.979Z,4.57
2023-01-15T10:43:16.925Z,2.67
2023-01-15T10:45:43.387Z,2.00
2023-01-15T10:48:09.824Z,1.83
2023-01-15T10:50:36.301Z,5.10
2023-01-15T10:53:02.822Z,1.10
2023-01-15T10:55:29.311Z,4.45
2023-01-15T10:58:08.962Z,2.63
2023-01-15T11:00:36.229Z,3.38
2023-01-15T11:03:02.756Z,1.75
2023-01-15T11:05:29.283Z,4.45
2023-01-15T11:08:30.549Z,4.28
2023-01-15T11:10:42.696Z,2.70
2023-01-15T11:13:09.205Z,2.67
2023-01-15T11:15:35.709Z,7.32
2023-01-15T11:18:02.677Z,2.88
2023-01-15T11:20:29.131Z,2.90
2023-01-15T11:22:55.610Z,2.83
2023-01-15T11:25:22.057Z,4.28
2023-01-15T11:27:48.535Z,6.00
2023-01-15T11:30:14.975Z,4.63
2023-01-15T11:32:41.484Z,6.90
2023-01-15T11:35:07.959Z,13.13
2023-01-15T11:37:34.953Z,4.90
2023-01-15T11:40:01.400Z,10.73
2023-01-15T11:42:27.888Z,3.55
2023-01-15T11:44:54.320Z,3.00
2023-01-15T11:47:20.800Z,9.68
2023-01-15T11:49:47.283Z,4.43
2023-01-15T11:52:13.730Z,9.40
2023-01-15T11:54:40.216Z,8.18
2023-01-15T11:57:06.697Z,10.00
2023-01-15T11:59:33.140Z,4.70
2023-01-15T12:01:59.635Z,9.13
2023-01-15T12:04:26.240Z,3.95
2023-01-15T12:06:52.807Z,6.78
2023-01-15T12:09:19.345Z,3.53
2023-01-15T12:11:46.301Z,10.82
2023-01-15T12:14:13.241Z,9.27
2023-01-15T12:16:39.668Z,4.07
2023-01-15T12:19:06.131Z,4.13
2023-01-15T12:21:32.622Z,6.53
2023-01-15T12:23:59.062Z,5.00
2023-01-15T12:26:25.524Z,6.43
2023-01-15T12:28:52.002Z,6.43
2023-01-15T12:31:18.993Z,7.50
2023-01-15T12:33:45.460Z,8.73
2023-01-15T12:36:11.896Z,9.02
2023-01-15T12:38:38.371Z,4.05
2023-01-15T12:41:04.853Z,10.55
2023-01-15T12:43:31.302Z,3.53
2023-01-15T12:45:57.737Z,4.43
2023-01-15T12:48:24.170Z,8.13
2023-01-15T12:50:50.694Z,4.25
2023-01-15T12:53:17.140Z,6.47
2023-01-15T12:55:43.601Z,8.60
2023-01-15T12:58:10.032Z,5.55
2023-01-15T13:00:36.547Z,7.72
2023-01-15T13:03:03.219Z,7.53
2023-01-15T13:05:29.714Z,14.00
2023-01-15T13:07:56.844Z,5.93
2023-01-15T13:10:23.288Z,8.67
2023-01-15T13:12:49.762Z,6.05
2023-01-15T13:15:16.250Z,13.00
2023-01-15T13:17:42.758Z,11.20
2023-01-15T13:20:09.192Z,8.80
2023-01-15T13:22:36.194Z,5.10
2023-01-15T13:25:02.640Z,12.00
2023-01-15T13:27:29.137Z,8.20
2023-01-15T13:29:55.641Z,5.43
2023-01-15T13:32:22.094Z,7.85
2023-01-15T13:34:48.584Z,2.63
2023-01-15T13:37:15.067Z,9.20
2023-01-15T13:39:41.608Z,8.18
2023-01-15T13:42:08.085Z,8.05
2023-01-15T13:44:34.584Z,5.40
2023-01-15T13:47:01.042Z,10.15
2023-01-15T13:49:27.502Z,10.38
2023-01-15T13:51:53.937Z,3.67
2023-01-15T13:54:20.395Z,9.98
2023-01-15T13:56:46.944Z,2.47
2023-01-15T13:59:13.432Z,3.88
2023-01-15T14:01:40.470Z,11.93
2023-01-15T14:04:07.488Z,3.90
2023-01-15T14:06:33.996Z,3.75
2023-01-15T14:09:00.989Z,5.75
2023-01-15T14:11:27.472Z,4.07
2023-01-15T14:13:54.417Z,5.70
2023-01-15T14:16:20.936Z,4.90
2023-01-15T14:18:47.430Z,5.90
2023-01-15T14:21:13.899Z,9.32
2023-01-15T14:23:40.358Z,2.58
2023-01-15T14:26:06.809Z,2.00
2023-01-15T14:28:33.289Z,6.45
2023-01-15T14:30:59.787Z,3.72
2023-01-15T14:33:26.770Z,2.63
2023-01-15T14:35:53.258Z,5.20
2023-01-15T14:38:20.191Z,5.10
2023-01-15T14:40:46.646Z,3.28
2023-01-15T14:43:13.093Z,6.65
2023-01-15T14:45:39.572Z,3.42
2023-01-15T14:48:06.234Z,5.45
2023-01-15T14:50:32.722Z,6.78
2023-01-15T14:52:59.166Z,3.95
2023-01-15T14:55:25.651Z,1.17
2023-01-15T14:57:52.163Z,6.88
2023-01-15T15:00:18.672Z,4.13
2023-01-15T15:02:45.203Z,2.95
2023-01-15T15:05:12.514Z,3.78
2023-01-15T15:07:41.559Z,4.10
2023-01-15T15:10:08.127Z,2.75
2023-01-15T15:12:34.602Z,2.85
2023-01-15T15:15:01.044Z,2.53
2023-01-15T15:17:27.544Z,3.10
2023-01-15T15:19:54.063Z,2.95
2023-01-15T15:22:20.548Z,5.82
2023-01-15T15:24:47.014Z,2.83
2023-01-15T15:27:13.944Z,2.97
2023-01-15T15:29:40.437Z,2.58
2023-01-15T15:32:06.907Z,2.45
2023-01-15T15:34:33.903Z,3.58
2023-01-15T15:37:01.588Z,2.53
2023-01-15T15:39:28.250Z,2.63
2023-01-15T15:41:54.697Z,3.95
2023-01-15T15:44:21.161Z,2.92
2023-01-15T15:46:47.622Z,2.40
2023-01-15T15:49:14.627Z,2.55
2023-01-15T15:51:41.120Z,1.37
2023-01-15T15:54:07.631Z,4.28
2023-01-15T15:56:34.635Z,4.70
2023-01-15T15:59:01.572Z,3.73
2023-01-15T16:01:28.118Z,1.27
2023-01-15T16:03:55.158Z,1.23
2023-01-15T16:06:21.637Z,3.07
2023-01-15T16:08:48.140Z,3.00
2023-01-15T16:11:14.597Z,3.28
2023-01-15T16:13:41.108Z,2.50
2023-01-15T16:16:07.561Z,1.80
2023-01-15T16:18:34.050Z,2.40
2023-01-15T16:21:00.501Z,3.90
2023-01-15T16:23:26.962Z,1.85
2023-01-15T16:25:53.888Z,5.97
2023-01-15T16:28:20.406Z,6.55
2023-01-15T16:30:46.902Z,11.60
2023-01-15T16:33:13.341Z,7.90
2023-01-15T16:35:40.272Z,9.70
2023-01-15T16:38:06.710Z,9.90
2023-01-15T16:40:33.207Z,8.65
2023-01-15T16:42:59.652Z,6.07
2023-01-15T16:45:26.087Z,6.57
2023-01-15T16:47:53.298Z,5.05
2023-01-15T16:50:19.759Z,5.47
2023-01-15T16:52:46.215Z,5.22
2023-01-15T16:55:12.719Z,7.05
2023-01-15T16:57:39.227Z,5.55
2023-01-15T17:00:05.728Z,5.18
2023-01-15T17:02:32.233Z,5.25
2023-01-15T17:04:58.704Z,5.30
2023-01-15T17:07:25.225Z,5.88
2023-01-15T17:09:51.718Z,3.45
2023-01-15T17:12:18.153Z,3.58
2023-01-15T17:14:45.120Z,2.28
2023-01-15T17:17:11.553Z,3.30
2023-01-15T17:19:38.046Z,6.90
2023-01-15T17:22:04.506Z,3.50
2023-01-15T17:24:30.975Z,5.00
2023-01-15T17:26:57.511Z,4.28
2023-01-15T17:29:24.519Z,3.65
2023-01-15T17:31:50.963Z,2.73
2023-01-15T17:34:17.405Z,3.92
2023-01-15T17:36:43.849Z,2.85
2023-01-15T17:39:10.832Z,2.72
2023-01-15T17:41:37.796Z,5.17
2023-01-15T17:44:04.280Z,3.17
2023-01-15T17:46:30.981Z,2.83
2023-01-15T17:48:57.439Z,3.13
2023-01-15T17:51:24.001Z,7.20
2023-01-15T17:53:50.457Z,2.95
2023-01-15T17:56:17.460Z,4.28
2023-01-15T17:58:43.936Z,6.30
2023-01-15T18:01:10.591Z,2.35
2023-01-15T18:03:37.066Z,2.95
2023-01-15T18:06:04.070Z,2.33
2023-01-15T18:08:30.551Z,7.03
2023-01-15T18:10:57.020Z,5.28
2023-01-15T18:13:23.498Z,2.95
2023-01-15T18:15:50.011Z,4.47
2023-01-15T18:18:16.466Z,2.17
2023-01-15T18:20:42.925Z,3.03
2023-01-15T18:23:09.897Z,3.10
2023-01-15T18:25:36.888Z,2.27
2023-01-15T18:28:03.348Z,3.17
2023-01-15T18:30:30.321Z,3.20
2023-01-15T18:32:56.762Z,3.40
2023-01-15T18:35:23.229Z,3.08
2023-01-15T18:37:49.674Z,3.60
2023-01-15T18:40:16.158Z,2.22
2023-01-15T18:42:43.140Z,6.63
2023-01-15T18:45:09.573Z,1.90
2023-01-15T18:47:36.054Z,4.38
2023-01-15T18:50:02.509Z,4.05
2023-01-15T18:52:29.529Z,2.78
2023-01-15T18:54:55.983Z,2.17
2023-01-15T18:57:22.429Z,1.63
2023-01-15T18:59:49.360Z,3.97
2023-01-15T19:02:15.922Z,1.65
2023-01-15T19:04:42.398Z,2.58
2023-01-15T19:07:08.877Z,3.30
2023-01-15T19:09:35.846Z,2.83
2023-01-15T19:12:02.336Z,4.90
2023-01-15T19:14:29.355Z,2.53
2023-01-15T19:16:55.838Z,3.93
2023-01-15T19:19:22.353Z,3.65
2023-01-15T19:21:48.836Z,3.35
2023-01-15T19:24:15.835Z,3.28
2023-01-15T19:26:42.283Z,3.33
2023-01-15T19:29:08.773Z,3.05
2023-01-15T19:31:36.823Z,2.00
2023-01-15T19:34:31.605Z,3.20
2023-01-15T19:36:50.279Z,1.63
2023-01-15T19:39:19.867Z,2.10
2023-01-15T19:41:46.329Z,3.00
2023-01-15T19:44:12.808Z,2.80
2023-01-15T19:46:39.753Z,2.22
2023-01-15T19:49:06.706Z,1.73
2023-01-15T19:51:33.724Z,4.07
2023-01-15T19:54:00.189Z,1.38
2023-01-15T19:56:26.679Z,2.33
2023-01-15T19:58:53.153Z,2.83
2023-01-15T20:01:20.244Z,4.68
2023-01-15T20:03:46.751Z,2.20
2023-01-15T20:06:13.209Z,6.32
2023-01-15T20:08:39.727Z,3.05
2023-01-15T20:11:06.679Z,4.18
2023-01-15T20:13:33.101Z,4.15
2023-01-15T20:15:59.620Z,7.53
2023-01-15T20:18:26.073Z,2.97
2023-01-15T20:20:52.535Z,2.17
2023-01-15T20:23:18.987Z,2.08
2023-01-15T20:25:45.965Z,3.90
2023-01-15T20:28:12.475Z,2.70
2023-01-15T20:30:38.962Z,3.67
2023-01-15T20:33:05.474Z,4.20
2023-01-15T20:35:31.946Z,2.10
2023-01-15T20:37:58.461Z,3.83
2023-01-15T20:40:24.930Z,2.28
2023-01-15T20:42:51.417Z,3.20
2023-01-15T20:45:17.922Z,3.22
2023-01-15T20:47:44.413Z,3.40
2023-01-15T20:50:10.849Z,2.72
2023-01-15T20:52:37.360Z,1.52
2023-01-15T20:55:04.310Z,1.75
2023-01-15T20:57:30.743Z,1.95
2023-01-15T20:59:57.220Z,2.70
2023-01-15T21:02:23.654Z,3.13
2023-01-15T21:04:50.659Z,1.75
2023-01-15T21:07:17.138Z,2.17
2023-01-15T21:09:43.596Z,3.20
2023-01-15T21:12:10.106Z,1.63
2023-01-15T21:14:37.041Z,2.85
2023-01-15T21:17:03.545Z,2.35
2023-01-15T21:19:30.038Z,1.55
2023-01-15T21:21:56.549Z,2.13
2023-01-15T21:24:23.038Z,2.38
2023-01-15T21:26:49.571Z,1.95
2023-01-15T21:29:16.063Z,1.88
2023-01-15T21:31:42.575Z,1.55
2023-01-15T21:34:09.050Z,2.50
2023-01-15T21:36:36.058Z,2.65
2023-01-15T21:39:02.533Z,5.30
2023-01-15T21:41:28.992Z,1.27
2023-01-15T21:43:55.441Z,1.58
2023-01-15T21:46:21.937Z,3.92
2023-01-15T21:48:48.397Z,4.15
2023-01-15T21:51:14.829Z,1.10
2023-01-15T21:53:41.331Z,5.05
2023-01-15T21:56:07.824Z,2.17
2023-01-15T21:58:34.788Z,3.17
2023-01-15T22:01:01.298Z,2.17
2023-01-15T22:03:27.802Z,1.20
2023-01-15T22:05:54.303Z,2.03
2023-01-15T22:08:21.307Z,1.98
2023-01-15T22:10:47.741Z,2.00
2023-01-15T22:13:14.197Z,2.38
2023-01-15T22:15:41.162Z,3.30
2023-01-15T22:18:07.646Z,1.07
2023-01-15T22:20:34.101Z,1.65
2023-01-15T22:23:00.558Z,1.48
2023-01-15T22:25:27.546Z,1.67
2023-01-15T22:27:54.086Z,3.60
2023-01-15T22:30:20.597Z,2.10
2023-01-15T22:32:47.106Z,1.73
2023-01-15T22:35:13.579Z,2.83
2023-01-15T22:37:40.027Z,2.20
2023-01-15T22:40:06.508Z,2.50
2023-01-15T22:42:33.146Z,1.20
2023-01-15T22:44:59.671Z,3.35
2023-01-15T22:47:26.154Z,2.10
2023-01-15T22:49:52.585Z,4.30
2023-01-15T22:52:19.065Z,5.30
2023-01-15T22:54:45.508Z,6.57
2023-01-15T22:57:12.010Z,4.07
2023-01-15T22:59:38.490Z,2.70
2023-01-15T23:02:05.070Z,2.00
2023-01-15T23:04:31.669Z,2.88
2023-01-15T23:06:58.127Z,3.20
2023-01-15T23:09:24.634Z,2.90
2023-01-15T23:11:51.734Z,2.72
2023-01-15T23:14:18.256Z,4.63
2023-01-15T23:16:44.742Z,3.85
2023-01-15T23:19:11.210Z,7.25
2023-01-15T23:21:37.698Z,1.92
2023-01-15T23:24:04.133Z,1.90
2023-01-15T23:26:30.633Z,2.95
2023-01-15T23:28:57.123Z,2.15
2023-01-15T23:31:23.636Z,1.48
2023-01-15T23:33:50.115Z,3.45
2023-01-15T23:36:16.624Z,1.52
2023-01-15T23:38:43.059Z,3.00
2023-01-15T23:41:09.519Z,1.77
2023-01-15T23:43:35.955Z,2.25
2023-01-15T23:46:02.935Z,1.05
2023-01-15T23:48:29.419Z,2.50
2023-01-15T23:50:55.871Z,5.10
2023-01-15T23:53:22.343Z,1.42
2023-01-15T23:55:49.323Z,3.30
2023-01-15T23:58:15.812Z,1.40
